Portageville, NY

5:09 PM EDT on March 30, 2015 (GMT -0400)
Wellsville Municipal-Tarantine | | Change Station
CLOSE
Current Station
Airport
Location: Wellsville,
Elevation: 2123 ft
Nearby Weather Stations

Elev 2123 ft 42.11 °N, 77.98 °W | Updated 9 minutes ago

Overcast
Overcast
34 °F
Feels Like 22 °F
N
22
Wind Variable Wind from WNW
Gusts 39 mph

Today
High -- | Low -- °F
--% Chance of Precip.
Yesterday
High -- | Low -- °F
Precip. -- in
6:58 AM 7:35 PM
Waxing Gibbous, 82% visible
Pressure 29.79 in
Visibility 0.8 miles
Clouds Mostly Cloudy 1400 ft
Mostly Cloudy 2100 ft
Overcast 4200 ft
Windchill 22 °F
Dew Point 29 °F
Humidity 82%
Rainfall 0.03 in
Snow Depth Not available.
UV 1 out of 12
Pollen 3.10 out of 12
Air Quality Not available.
Flu Activity Not available.
SPECI KELZ 302100Z AUTO 29019G34KT 3/4SM -SN BKN014 BKN021 OVC042 01/M02 A2979 RMK AO2 PK WND 29028/2057 P0000 T00111017

More Conditions Fewer Conditions

Pressure 29.79 in
Visibility 0.8 miles
Clouds Mostly Cloudy 1400 ft
Mostly Cloudy 2100 ft
Overcast 4200 ft
Windchill 22 °F
Dew Point 29 °F
Humidity 82%
Rainfall 0.03 in
Snow Depth Not available.
UV 1 out of 12
Pollen 3.10 out of 12
Air Quality Not available.
Flu Activity Not available.
SPECI KELZ 302100Z AUTO 29019G34KT 3/4SM -SN BKN014 BKN021 OVC042 01/M02 A2979 RMK AO2 PK WND 29028/2057 P0000 T00111017

More Conditions Fewer Conditions

10-Day Weather Forecast

Almanac

Astronomy

Mar. 30, 2015 Rise Set
Actual Time
Civil Twilight
Nautical Twilight
Astronomical Twilight
Moon
Length of Visible Light
Length of Day
Tomorrow will be .
, % of the Moon is Illuminated

Today's Extremes

State Highs State Lows

Community

WunderPhotos

Upload Photos

1,809,587 photos uploaded!

WunderBlogs® & News

Nearby

Air Quality

  Air Quality AQ Index Pollutant
Not available.

Snow Depth

Station Depth Elevation

Earthquake Activity

City Distance Mag. Time & Date
Minimum magnitude displayed is 2.5.

Coastal Water Temperatures

Place Temperature

Stations

Nearby Weather Stations

Station Location Temp. Windchill Dew Point Humidity Wind Precip. Elev Updated Type